sensor_id;sensor_type;location;lat;lon;timestamp;P1;durP1;ratioP1;P2;durP2;ratioP2
11960;SDS011;6040;49.358;11.140;2023-05-07T00:02:06;2.90;;;2.17;;
11960;SDS011;6040;49.358;11.140;2023-05-07T00:04:33;3.50;;;2.50;;
11960;SDS011;6040;49.358;11.140;2023-05-07T00:07:02;4.17;;;2.67;;
11960;SDS011;6040;49.358;11.140;2023-05-07T00:09:30;4.90;;;2.73;;
11960;SDS011;6040;49.358;11.140;2023-05-07T00:11:57;3.45;;;2.65;;
11960;SDS011;6040;49.358;11.140;2023-05-07T00:14:24;4.50;;;2.87;;
11960;SDS011;6040;49.358;11.140;2023-05-07T00:16:51;2.97;;;2.67;;
11960;SDS011;6040;49.358;11.140;2023-05-07T00:19:18;7.67;;;2.90;;
11960;SDS011;6040;49.358;11.140;2023-05-07T00:21:45;4.97;;;3.00;;
11960;SDS011;6040;49.358;11.140;2023-05-07T00:24:11;3.47;;;2.77;;
11960;SDS011;6040;49.358;11.140;2023-05-07T00:26:40;6.67;;;2.90;;
11960;SDS011;6040;49.358;11.140;2023-05-07T00:29:06;2.77;;;2.53;;
11960;SDS011;6040;49.358;11.140;2023-05-07T00:31:33;4.33;;;2.67;;
11960;SDS011;6040;49.358;11.140;2023-05-07T00:34:00;5.67;;;2.73;;
11960;SDS011;6040;49.358;11.140;2023-05-07T00:36:27;4.43;;;3.07;;
11960;SDS011;6040;49.358;11.140;2023-05-07T00:38:54;4.70;;;2.87;;
11960;SDS011;6040;49.358;11.140;2023-05-07T00:41:21;3.30;;;2.73;;
11960;SDS011;6040;49.358;11.140;2023-05-07T00:43:49;3.23;;;2.50;;
11960;SDS011;6040;49.358;11.140;2023-05-07T00:46:17;3.63;;;2.43;;
11960;SDS011;6040;49.358;11.140;2023-05-07T00:48:44;4.07;;;2.70;;
11960;SDS011;6040;49.358;11.140;2023-05-07T00:51:11;4.77;;;2.60;;
11960;SDS011;6040;49.358;11.140;2023-05-07T00:53:38;2.90;;;2.37;;
11960;SDS011;6040;49.358;11.140;2023-05-07T00:56:06;3.37;;;2.80;;
11960;SDS011;6040;49.358;11.140;2023-05-07T00:58:33;3.43;;;2.90;;
11960;SDS011;6040;49.358;11.140;2023-05-07T01:01:01;6.03;;;3.43;;
11960;SDS011;6040;49.358;11.140;2023-05-07T01:03:28;5.33;;;2.90;;
11960;SDS011;6040;49.358;11.140;2023-05-07T01:05:55;3.50;;;3.13;;
11960;SDS011;6040;49.358;11.140;2023-05-07T01:08:23;5.23;;;3.30;;
11960;SDS011;6040;49.358;11.140;2023-05-07T01:10:53;3.97;;;2.83;;
11960;SDS011;6040;49.358;11.140;2023-05-07T01:13:20;3.80;;;2.80;;
11960;SDS011;6040;49.358;11.140;2023-05-07T01:15:47;3.73;;;2.70;;
11960;SDS011;6040;49.358;11.140;2023-05-07T01:18:15;3.50;;;2.40;;
11960;SDS011;6040;49.358;11.140;2023-05-07T01:20:42;3.90;;;2.30;;
11960;SDS011;6040;49.358;11.140;2023-05-07T01:23:11;3.90;;;2.53;;
11960;SDS011;6040;49.358;11.140;2023-05-07T01:25:38;5.13;;;2.50;;
11960;SDS011;6040;49.358;11.140;2023-05-07T01:28:05;5.03;;;2.50;;
11960;SDS011;6040;49.358;11.140;2023-05-07T01:30:32;3.00;;;2.50;;
11960;SDS011;6040;49.358;11.140;2023-05-07T01:33:01;3.00;;;2.60;;
11960;SDS011;6040;49.358;11.140;2023-05-07T01:35:34;3.33;;;2.30;;
11960;SDS011;6040;49.358;11.140;2023-05-07T01:38:04;3.73;;;2.53;;
11960;SDS011;6040;49.358;11.140;2023-05-07T01:40:34;3.73;;;2.23;;
11960;SDS011;6040;49.358;11.140;2023-05-07T01:43:01;4.20;;;2.53;;
11960;SDS011;6040;49.358;11.140;2023-05-07T01:45:29;3.03;;;2.47;;
11960;SDS011;6040;49.358;11.140;2023-05-07T01:47:56;2.87;;;2.30;;
11960;SDS011;6040;49.358;11.140;2023-05-07T01:50:24;4.40;;;2.70;;
11960;SDS011;6040;49.358;11.140;2023-05-07T01:52:52;3.20;;;2.73;;
11960;SDS011;6040;49.358;11.140;2023-05-07T01:55:19;8.70;;;2.80;;
11960;SDS011;6040;49.358;11.140;2023-05-07T01:57:47;7.10;;;2.60;;
11960;SDS011;6040;49.358;11.140;2023-05-07T02:00:14;2.80;;;2.60;;
11960;SDS011;6040;49.358;11.140;2023-05-07T02:02:41;3.43;;;2.63;;
11960;SDS011;6040;49.358;11.140;2023-05-07T02:05:08;4.67;;;2.63;;
11960;SDS011;6040;49.358;11.140;2023-05-07T02:07:35;7.20;;;2.70;;
11960;SDS011;6040;49.358;11.140;2023-05-07T02:10:01;4.60;;;2.70;;
11960;SDS011;6040;49.358;11.140;2023-05-07T02:12:29;2.97;;;2.57;;
11960;SDS011;6040;49.358;11.140;2023-05-07T02:14:57;3.87;;;2.63;;
11960;SDS011;6040;49.358;11.140;2023-05-07T02:17:23;6.20;;;2.90;;
11960;SDS011;6040;49.358;11.140;2023-05-07T02:19:50;3.10;;;2.80;;
11960;SDS011;6040;49.358;11.140;2023-05-07T02:22:17;5.67;;;3.80;;
11960;SDS011;6040;49.358;11.140;2023-05-07T02:24:44;9.83;;;3.20;;
11960;SDS011;6040;49.358;11.140;2023-05-07T02:27:11;3.90;;;3.10;;
11960;SDS011;6040;49.358;11.140;2023-05-07T02:29:38;3.33;;;3.03;;
11960;SDS011;6040;49.358;11.140;2023-05-07T02:32:06;4.03;;;3.30;;
11960;SDS011;6040;49.358;11.140;2023-05-07T02:34:33;4.73;;;3.40;;
11960;SDS011;6040;49.358;11.140;2023-05-07T02:36:59;4.53;;;3.50;;
11960;SDS011;6040;49.358;11.140;2023-05-07T02:39:26;5.43;;;3.60;;
11960;SDS011;6040;49.358;11.140;2023-05-07T02:41:53;4.70;;;3.47;;
11960;SDS011;6040;49.358;11.140;2023-05-07T02:44:20;5.03;;;3.77;;
11960;SDS011;6040;49.358;11.140;2023-05-07T02:46:47;3.70;;;3.40;;
11960;SDS011;6040;49.358;11.140;2023-05-07T02:49:15;4.30;;;3.63;;
11960;SDS011;6040;49.358;11.140;2023-05-07T02:51:41;3.90;;;3.27;;
11960;SDS011;6040;49.358;11.140;2023-05-07T02:54:08;4.33;;;2.93;;
11960;SDS011;6040;49.358;11.140;2023-05-07T02:56:35;2.83;;;2.50;;
11960;SDS011;6040;49.358;11.140;2023-05-07T02:59:02;4.40;;;2.90;;
11960;SDS011;6040;49.358;11.140;2023-05-07T03:01:28;3.13;;;2.80;;
11960;SDS011;6040;49.358;11.140;2023-05-07T03:03:55;2.67;;;2.47;;
11960;SDS011;6040;49.358;11.140;2023-05-07T03:06:23;4.37;;;2.50;;
11960;SDS011;6040;49.358;11.140;2023-05-07T03:08:51;3.93;;;2.70;;
11960;SDS011;6040;49.358;11.140;2023-05-07T03:11:18;3.73;;;2.70;;
11960;SDS011;6040;49.358;11.140;2023-05-07T03:13:44;2.73;;;2.53;;
11960;SDS011;6040;49.358;11.140;2023-05-07T03:16:11;3.53;;;3.00;;
11960;SDS011;6040;49.358;11.140;2023-05-07T03:18:38;3.80;;;2.73;;
11960;SDS011;6040;49.358;11.140;2023-05-07T03:21:05;3.00;;;2.70;;
11960;SDS011;6040;49.358;11.140;2023-05-07T03:23:33;4.03;;;2.50;;
11960;SDS011;6040;49.358;11.140;2023-05-07T03:26:00;2.87;;;2.63;;
11960;SDS011;6040;49.358;11.140;2023-05-07T03:28:26;3.93;;;2.70;;
11960;SDS011;6040;49.358;11.140;2023-05-07T03:30:53;5.50;;;2.60;;
11960;SDS011;6040;49.358;11.140;2023-05-07T03:33:20;4.87;;;2.50;;
11960;SDS011;6040;49.358;11.140;2023-05-07T03:35:47;3.50;;;2.80;;
11960;SDS011;6040;49.358;11.140;2023-05-07T03:38:14;4.33;;;2.70;;
11960;SDS011;6040;49.358;11.140;2023-05-07T03:40:42;3.13;;;2.47;;
11960;SDS011;6040;49.358;11.140;2023-05-07T03:43:09;5.47;;;2.60;;
11960;SDS011;6040;49.358;11.140;2023-05-07T03:45:36;4.90;;;2.90;;
11960;SDS011;6040;49.358;11.140;2023-05-07T03:48:03;3.83;;;2.90;;
11960;SDS011;6040;49.358;11.140;2023-05-07T03:50:30;5.00;;;2.83;;
11960;SDS011;6040;49.358;11.140;2023-05-07T03:52:57;5.93;;;2.73;;
11960;SDS011;6040;49.358;11.140;2023-05-07T03:55:23;2.80;;;2.60;;
11960;SDS011;6040;49.358;11.140;2023-05-07T03:57:52;2.77;;;2.57;;
11960;SDS011;6040;49.358;11.140;2023-05-07T04:00:19;3.20;;;2.87;;
11960;SDS011;6040;49.358;11.140;2023-05-07T04:02:47;3.77;;;2.93;;
11960;SDS011;6040;49.358;11.140;2023-05-07T04:05:14;3.30;;;2.77;;
11960;SDS011;6040;49.358;11.140;2023-05-07T04:07:41;2.87;;;2.67;;
11960;SDS011;6040;49.358;11.140;2023-05-07T04:10:08;2.90;;;2.70;;
11960;SDS011;6040;49.358;11.140;2023-05-07T04:12:35;3.87;;;2.80;;
11960;SDS011;6040;49.358;11.140;2023-05-07T04:15:04;3.20;;;2.73;;
11960;SDS011;6040;49.358;11.140;2023-05-07T04:17:31;5.00;;;2.90;;
11960;SDS011;6040;49.358;11.140;2023-05-07T04:19:58;3.10;;;2.70;;
11960;SDS011;6040;49.358;11.140;2023-05-07T04:22:25;3.40;;;2.70;;
11960;SDS011;6040;49.358;11.140;2023-05-07T04:24:52;3.27;;;2.97;;
11960;SDS011;6040;49.358;11.140;2023-05-07T04:27:18;3.23;;;2.93;;
11960;SDS011;6040;49.358;11.140;2023-05-07T04:29:46;4.73;;;2.67;;
11960;SDS011;6040;49.358;11.140;2023-05-07T04:32:14;3.57;;;2.90;;
11960;SDS011;6040;49.358;11.140;2023-05-07T04:34:41;3.70;;;3.07;;
11960;SDS011;6040;49.358;11.140;2023-05-07T04:37:08;3.77;;;2.90;;
11960;SDS011;6040;49.358;11.140;2023-05-07T04:39:34;5.20;;;2.60;;
11960;SDS011;6040;49.358;11.140;2023-05-07T04:42:01;4.97;;;3.00;;
11960;SDS011;6040;49.358;11.140;2023-05-07T04:44:29;3.63;;;2.97;;
11960;SDS011;6040;49.358;11.140;2023-05-07T04:46:56;5.60;;;2.80;;
11960;SDS011;6040;49.358;11.140;2023-05-07T04:49:24;3.87;;;3.20;;
11960;SDS011;6040;49.358;11.140;2023-05-07T04:51:51;2.87;;;2.60;;
11960;SDS011;6040;49.358;11.140;2023-05-07T04:54:17;3.90;;;2.53;;
11960;SDS011;6040;49.358;11.140;2023-05-07T04:56:44;3.50;;;2.90;;
11960;SDS011;6040;49.358;11.140;2023-05-07T04:59:11;4.30;;;2.90;;
11960;SDS011;6040;49.358;11.140;2023-05-07T05:01:38;3.30;;;3.00;;
11960;SDS011;6040;49.358;11.140;2023-05-07T05:04:05;5.80;;;2.90;;
11960;SDS011;6040;49.358;11.140;2023-05-07T05:06:33;3.13;;;2.83;;
11960;SDS011;6040;49.358;11.140;2023-05-07T05:09:00;6.90;;;3.10;;
11960;SDS011;6040;49.358;11.140;2023-05-07T05:11:28;6.20;;;3.13;;
11960;SDS011;6040;49.358;11.140;2023-05-07T05:13:54;4.73;;;3.30;;
11960;SDS011;6040;49.358;11.140;2023-05-07T05:16:21;6.77;;;3.33;;
11960;SDS011;6040;49.358;11.140;2023-05-07T05:18:48;4.73;;;3.23;;
11960;SDS011;6040;49.358;11.140;2023-05-07T05:21:16;4.37;;;3.33;;
11960;SDS011;6040;49.358;11.140;2023-05-07T05:23:44;4.40;;;3.30;;
11960;SDS011;6040;49.358;11.140;2023-05-07T05:26:11;5.50;;;4.80;;
11960;SDS011;6040;49.358;11.140;2023-05-07T05:28:38;5.80;;;5.30;;
11960;SDS011;6040;49.358;11.140;2023-05-07T05:31:05;6.67;;;5.70;;
11960;SDS011;6040;49.358;11.140;2023-05-07T05:33:32;6.47;;;5.87;;
11960;SDS011;6040;49.358;11.140;2023-05-07T05:35:59;6.10;;;5.40;;
11960;SDS011;6040;49.358;11.140;2023-05-07T05:38:26;6.33;;;5.67;;
11960;SDS011;6040;49.358;11.140;2023-05-07T05:40:54;5.87;;;5.27;;
11960;SDS011;6040;49.358;11.140;2023-05-07T05:43:22;6.07;;;5.37;;
11960;SDS011;6040;49.358;11.140;2023-05-07T05:45:49;6.00;;;5.40;;
11960;SDS011;6040;49.358;11.140;2023-05-07T05:48:16;6.43;;;5.83;;
11960;SDS011;6040;49.358;11.140;2023-05-07T05:50:42;7.60;;;5.90;;
11960;SDS011;6040;49.358;11.140;2023-05-07T05:53:09;8.23;;;5.43;;
11960;SDS011;6040;49.358;11.140;2023-05-07T05:55:36;6.27;;;5.30;;
11960;SDS011;6040;49.358;11.140;2023-05-07T05:58:04;5.57;;;5.07;;
11960;SDS011;6040;49.358;11.140;2023-05-07T06:00:31;6.40;;;5.20;;
11960;SDS011;6040;49.358;11.140;2023-05-07T06:02:58;6.20;;;5.60;;
11960;SDS011;6040;49.358;11.140;2023-05-07T06:05:25;7.20;;;5.70;;
11960;SDS011;6040;49.358;11.140;2023-05-07T06:07:52;6.20;;;5.33;;
11960;SDS011;6040;49.358;11.140;2023-05-07T06:10:18;8.43;;;6.00;;
11960;SDS011;6040;49.358;11.140;2023-05-07T06:12:45;6.77;;;6.13;;
11960;SDS011;6040;49.358;11.140;2023-05-07T06:15:14;6.27;;;5.67;;
11960;SDS011;6040;49.358;11.140;2023-05-07T06:17:40;6.60;;;6.00;;
11960;SDS011;6040;49.358;11.140;2023-05-07T06:20:07;6.27;;;5.63;;
11960;SDS011;6040;49.358;11.140;2023-05-07T06:22:34;9.67;;;6.37;;
11960;SDS011;6040;49.358;11.140;2023-05-07T06:25:01;8.73;;;6.20;;
11960;SDS011;6040;49.358;11.140;2023-05-07T06:27:28;7.10;;;6.40;;
11960;SDS011;6040;49.358;11.140;2023-05-07T06:29:55;7.27;;;6.50;;
11960;SDS011;6040;49.358;11.140;2023-05-07T06:32:23;7.10;;;6.40;;
11960;SDS011;6040;49.358;11.140;2023-05-07T06:34:50;8.70;;;6.83;;
11960;SDS011;6040;49.358;11.140;2023-05-07T06:37:17;7.13;;;6.13;;
11960;SDS011;6040;49.358;11.140;2023-05-07T06:39:44;6.37;;;5.77;;
11960;SDS011;6040;49.358;11.140;2023-05-07T06:42:10;7.87;;;6.30;;
11960;SDS011;6040;49.358;11.140;2023-05-07T06:44:37;7.57;;;6.20;;
11960;SDS011;6040;49.358;11.140;2023-05-07T06:47:04;6.83;;;6.13;;
11960;SDS011;6040;49.358;11.140;2023-05-07T06:49:32;6.57;;;5.97;;
11960;SDS011;6040;49.358;11.140;2023-05-07T06:51:59;8.00;;;6.47;;
11960;SDS011;6040;49.358;11.140;2023-05-07T06:54:26;6.40;;;5.77;;
11960;SDS011;6040;49.358;11.140;2023-05-07T06:56:53;8.00;;;6.13;;
11960;SDS011;6040;49.358;11.140;2023-05-07T06:59:20;7.00;;;6.20;;
11960;SDS011;6040;49.358;11.140;2023-05-07T07:01:46;6.80;;;6.17;;
11960;SDS011;6040;49.358;11.140;2023-05-07T07:04:13;6.80;;;5.67;;
11960;SDS011;6040;49.358;11.140;2023-05-07T07:06:41;6.90;;;5.40;;
11960;SDS011;6040;49.358;11.140;2023-05-07T07:09:08;10.13;;;5.90;;
11960;SDS011;6040;49.358;11.140;2023-05-07T07:11:35;7.47;;;6.00;;
11960;SDS011;6040;49.358;11.140;2023-05-07T07:14:02;6.53;;;5.53;;
11960;SDS011;6040;49.358;11.140;2023-05-07T07:16:30;6.40;;;5.47;;
11960;SDS011;6040;49.358;11.140;2023-05-07T07:18:56;7.90;;;5.33;;
11960;SDS011;6040;49.358;11.140;2023-05-07T07:21:23;7.00;;;5.83;;
11960;SDS011;6040;49.358;11.140;2023-05-07T07:23:52;7.30;;;5.83;;
11960;SDS011;6040;49.358;11.140;2023-05-07T07:26:18;5.97;;;5.40;;
11960;SDS011;6040;49.358;11.140;2023-05-07T07:28:45;6.20;;;5.60;;
11960;SDS011;6040;49.358;11.140;2023-05-07T07:31:12;7.47;;;5.03;;
11960;SDS011;6040;49.358;11.140;2023-05-07T07:33:40;6.40;;;5.43;;
11960;SDS011;6040;49.358;11.140;2023-05-07T07:36:07;6.60;;;5.07;;
11960;SDS011;6040;49.358;11.140;2023-05-07T07:38:34;5.63;;;5.13;;
11960;SDS011;6040;49.358;11.140;2023-05-07T07:41:02;6.33;;;5.23;;
11960;SDS011;6040;49.358;11.140;2023-05-07T07:43:29;6.53;;;5.20;;
11960;SDS011;6040;49.358;11.140;2023-05-07T07:45:56;7.43;;;5.30;;
11960;SDS011;6040;49.358;11.140;2023-05-07T07:48:23;5.60;;;4.77;;
11960;SDS011;6040;49.358;11.140;2023-05-07T07:50:50;5.40;;;4.90;;
11960;SDS011;6040;49.358;11.140;2023-05-07T07:53:17;7.07;;;4.87;;
11960;SDS011;6040;49.358;11.140;2023-05-07T07:55:44;6.40;;;5.17;;
11960;SDS011;6040;49.358;11.140;2023-05-07T07:58:12;6.00;;;5.10;;
11960;SDS011;6040;49.358;11.140;2023-05-07T08:00:39;5.93;;;5.33;;
11960;SDS011;6040;49.358;11.140;2023-05-07T08:03:06;5.93;;;5.37;;
11960;SDS011;6040;49.358;11.140;2023-05-07T08:05:35;5.73;;;5.07;;
11960;SDS011;6040;49.358;11.140;2023-05-07T08:08:03;6.87;;;5.00;;
11960;SDS011;6040;49.358;11.140;2023-05-07T08:10:30;6.00;;;5.40;;
11960;SDS011;6040;49.358;11.140;2023-05-07T08:12:59;7.77;;;5.43;;
11960;SDS011;6040;49.358;11.140;2023-05-07T08:15:28;5.57;;;4.80;;
11960;SDS011;6040;49.358;11.140;2023-05-07T08:17:54;5.60;;;4.97;;
11960;SDS011;6040;49.358;11.140;2023-05-07T08:20:22;6.07;;;5.17;;
11960;SDS011;6040;49.358;11.140;2023-05-07T08:22:49;4.80;;;4.30;;
11960;SDS011;6040;49.358;11.140;2023-05-07T08:25:17;5.20;;;4.70;;
11960;SDS011;6040;49.358;11.140;2023-05-07T08:27:44;5.33;;;4.67;;
11960;SDS011;6040;49.358;11.140;2023-05-07T08:30:11;5.50;;;4.47;;
11960;SDS011;6040;49.358;11.140;2023-05-07T08:32:40;6.27;;;5.00;;
11960;SDS011;6040;49.358;11.140;2023-05-07T08:35:07;5.07;;;4.50;;
11960;SDS011;6040;49.358;11.140;2023-05-07T08:37:34;5.10;;;4.20;;
11960;SDS011;6040;49.358;11.140;2023-05-07T08:40:01;5.43;;;4.70;;
11960;SDS011;6040;49.358;11.140;2023-05-07T08:42:28;5.07;;;4.57;;
11960;SDS011;6040;49.358;11.140;2023-05-07T08:44:57;6.37;;;4.40;;
11960;SDS011;6040;49.358;11.140;2023-05-07T08:47:28;5.00;;;4.50;;
11960;SDS011;6040;49.358;11.140;2023-05-07T08:50:01;4.67;;;4.20;;
11960;SDS011;6040;49.358;11.140;2023-05-07T08:52:28;4.67;;;4.20;;
11960;SDS011;6040;49.358;11.140;2023-05-07T08:54:55;4.77;;;3.93;;
11960;SDS011;6040;49.358;11.140;2023-05-07T08:57:22;5.07;;;3.90;;
11960;SDS011;6040;49.358;11.140;2023-05-07T08:59:49;4.87;;;4.13;;
11960;SDS011;6040;49.358;11.140;2023-05-07T09:02:17;5.20;;;4.10;;
11960;SDS011;6040;49.358;11.140;2023-05-07T09:04:44;5.47;;;4.30;;
11960;SDS011;6040;49.358;11.140;2023-05-07T09:07:12;4.53;;;3.97;;
11960;SDS011;6040;49.358;11.140;2023-05-07T09:09:39;4.30;;;3.70;;
11960;SDS011;6040;49.358;11.140;2023-05-07T09:12:06;6.30;;;4.00;;
11960;SDS011;6040;49.358;11.140;2023-05-07T09:14:33;4.23;;;3.83;;
11960;SDS011;6040;49.358;11.140;2023-05-07T09:17:00;4.40;;;3.57;;
11960;SDS011;6040;49.358;11.140;2023-05-07T09:19:27;4.30;;;3.67;;
11960;SDS011;6040;49.358;11.140;2023-05-07T09:22:00;3.30;;;3.00;;
11960;SDS011;6040;49.358;11.140;2023-05-07T09:24:28;3.67;;;3.37;;
11960;SDS011;6040;49.358;11.140;2023-05-07T09:26:59;3.23;;;2.93;;
11960;SDS011;6040;49.358;11.140;2023-05-07T09:29:27;3.73;;;3.43;;
11960;SDS011;6040;49.358;11.140;2023-05-07T09:31:55;4.97;;;3.60;;
11960;SDS011;6040;49.358;11.140;2023-05-07T09:34:22;3.60;;;3.30;;
11960;SDS011;6040;49.358;11.140;2023-05-07T09:36:48;5.40;;;3.30;;
11960;SDS011;6040;49.358;11.140;2023-05-07T09:39:16;3.47;;;3.00;;
11960;SDS011;6040;49.358;11.140;2023-05-07T09:41:44;3.57;;;2.80;;
11960;SDS011;6040;49.358;11.140;2023-05-07T09:44:12;3.40;;;3.10;;
11960;SDS011;6040;49.358;11.140;2023-05-07T09:46:41;3.03;;;2.73;;
11960;SDS011;6040;49.358;11.140;2023-05-07T09:49:10;4.00;;;2.50;;
11960;SDS011;6040;49.358;11.140;2023-05-07T09:51:43;3.50;;;2.77;;
11960;SDS011;6040;49.358;11.140;2023-05-07T09:54:14;2.87;;;2.67;;
11960;SDS011;6040;49.358;11.140;2023-05-07T09:56:42;3.93;;;2.87;;
11960;SDS011;6040;49.358;11.140;2023-05-07T09:59:11;3.30;;;2.77;;
11960;SDS011;6040;49.358;11.140;2023-05-07T10:01:40;4.13;;;2.93;;
11960;SDS011;6040;49.358;11.140;2023-05-07T10:04:08;3.50;;;3.20;;
11960;SDS011;6040;49.358;11.140;2023-05-07T10:06:36;3.20;;;2.90;;
11960;SDS011;6040;49.358;11.140;2023-05-07T10:09:03;3.20;;;2.90;;
11960;SDS011;6040;49.358;11.140;2023-05-07T10:11:31;3.13;;;2.93;;
11960;SDS011;6040;49.358;11.140;2023-05-07T10:13:59;5.73;;;3.17;;
11960;SDS011;6040;49.358;11.140;2023-05-07T10:16:28;3.10;;;2.60;;
11960;SDS011;6040;49.358;11.140;2023-05-07T10:18:58;5.10;;;2.80;;
11960;SDS011;6040;49.358;11.140;2023-05-07T10:21:26;3.40;;;3.10;;
11960;SDS011;6040;49.358;11.140;2023-05-07T10:23:56;5.07;;;2.73;;
11960;SDS011;6040;49.358;11.140;2023-05-07T10:26:25;3.97;;;2.80;;
11960;SDS011;6040;49.358;11.140;2023-05-07T10:28:56;3.10;;;2.90;;
11960;SDS011;6040;49.358;11.140;2023-05-07T10:31:35;3.30;;;2.80;;
11960;SDS011;6040;49.358;11.140;2023-05-07T10:34:21;3.53;;;2.60;;
11960;SDS011;6040;49.358;11.140;2023-05-07T10:36:52;3.27;;;2.47;;
11960;SDS011;6040;49.358;11.140;2023-05-07T10:39:21;3.27;;;2.37;;
11960;SDS011;6040;49.358;11.140;2023-05-07T10:41:48;3.20;;;2.53;;
11960;SDS011;6040;49.358;11.140;2023-05-07T10:44:24;2.83;;;2.63;;
11960;SDS011;6040;49.358;11.140;2023-05-07T10:47:04;3.90;;;2.23;;
11960;SDS011;6040;49.358;11.140;2023-05-07T10:49:35;3.30;;;2.90;;
11960;SDS011;6040;49.358;11.140;2023-05-07T10:52:12;2.93;;;2.40;;
11960;SDS011;6040;49.358;11.140;2023-05-07T10:54:40;2.93;;;2.37;;
11960;SDS011;6040;49.358;11.140;2023-05-07T11:00:02;2.63;;;2.17;;
11960;SDS011;6040;49.358;11.140;2023-05-07T11:05:34;2.73;;;2.10;;
11960;SDS011;6040;49.358;11.140;2023-05-07T11:08:02;5.00;;;2.47;;
11960;SDS011;6040;49.358;11.140;2023-05-07T11:10:49;2.83;;;2.63;;
11960;SDS011;6040;49.358;11.140;2023-05-07T11:13:18;2.72;;;2.17;;
11960;SDS011;6040;49.358;11.140;2023-05-07T11:15:45;3.40;;;2.33;;
11960;SDS011;6040;49.358;11.140;2023-05-07T11:18:15;3.23;;;2.20;;
11960;SDS011;6040;49.358;11.140;2023-05-07T11:20:50;4.60;;;2.80;;
11960;SDS011;6040;49.358;11.140;2023-05-07T11:26:42;2.10;;;2.00;;
11960;SDS011;6040;49.358;11.140;2023-05-07T11:29:11;2.20;;;2.00;;
11960;SDS011;6040;49.358;11.140;2023-05-07T11:31:39;2.50;;;2.30;;
11960;SDS011;6040;49.358;11.140;2023-05-07T11:34:07;2.13;;;1.80;;
11960;SDS011;6040;49.358;11.140;2023-05-07T11:36:35;2.00;;;1.80;;
11960;SDS011;6040;49.358;11.140;2023-05-07T11:39:22;2.17;;;1.80;;
11960;SDS011;6040;49.358;11.140;2023-05-07T11:41:50;2.30;;;2.10;;
11960;SDS011;6040;49.358;11.140;2023-05-07T11:44:16;3.83;;;2.00;;
11960;SDS011;6040;49.358;11.140;2023-05-07T11:46:44;4.13;;;2.03;;
11960;SDS011;6040;49.358;11.140;2023-05-07T11:49:12;3.70;;;1.87;;
11960;SDS011;6040;49.358;11.140;2023-05-07T11:51:39;2.17;;;1.97;;
11960;SDS011;6040;49.358;11.140;2023-05-07T11:54:07;2.77;;;2.20;;
11960;SDS011;6040;49.358;11.140;2023-05-07T11:56:36;4.00;;;2.07;;
11960;SDS011;6040;49.358;11.140;2023-05-07T11:59:03;3.00;;;2.10;;
11960;SDS011;6040;49.358;11.140;2023-05-07T12:01:31;2.40;;;2.00;;
11960;SDS011;6040;49.358;11.140;2023-05-07T12:03:57;2.43;;;1.73;;
11960;SDS011;6040;49.358;11.140;2023-05-07T12:06:25;3.13;;;2.70;;
11960;SDS011;6040;49.358;11.140;2023-05-07T12:08:52;2.20;;;2.00;;
11960;SDS011;6040;49.358;11.140;2023-05-07T12:11:22;4.40;;;2.83;;
11960;SDS011;6040;49.358;11.140;2023-05-07T12:13:50;4.00;;;2.37;;
11960;SDS011;6040;49.358;11.140;2023-05-07T12:16:17;2.43;;;2.10;;
11960;SDS011;6040;49.358;11.140;2023-05-07T12:18:45;2.77;;;2.37;;
11960;SDS011;6040;49.358;11.140;2023-05-07T12:21:12;2.53;;;2.15;;
11960;SDS011;6040;49.358;11.140;2023-05-07T12:23:41;2.20;;;2.10;;
11960;SDS011;6040;49.358;11.140;2023-05-07T12:26:08;2.83;;;2.15;;
11960;SDS011;6040;49.358;11.140;2023-05-07T12:28:38;3.53;;;2.20;;
11960;SDS011;6040;49.358;11.140;2023-05-07T12:31:05;2.50;;;2.08;;
11960;SDS011;6040;49.358;11.140;2023-05-07T12:33:32;2.00;;;1.90;;
11960;SDS011;6040;49.358;11.140;2023-05-07T12:36:02;2.17;;;1.97;;
11960;SDS011;6040;49.358;11.140;2023-05-07T12:38:34;2.80;;;2.23;;
11960;SDS011;6040;49.358;11.140;2023-05-07T12:41:04;2.23;;;2.10;;
11960;SDS011;6040;49.358;11.140;2023-05-07T12:43:32;3.30;;;2.30;;
11960;SDS011;6040;49.358;11.140;2023-05-07T12:45:59;2.90;;;2.50;;
11960;SDS011;6040;49.358;11.140;2023-05-07T12:48:27;2.37;;;2.17;;
11960;SDS011;6040;49.358;11.140;2023-05-07T12:50:54;2.40;;;2.13;;
11960;SDS011;6040;49.358;11.140;2023-05-07T12:53:23;2.70;;;1.90;;
11960;SDS011;6040;49.358;11.140;2023-05-07T12:55:52;2.33;;;2.13;;
11960;SDS011;6040;49.358;11.140;2023-05-07T12:58:21;2.47;;;2.27;;
11960;SDS011;6040;49.358;11.140;2023-05-07T13:00:51;2.30;;;2.10;;
11960;SDS011;6040;49.358;11.140;2023-05-07T13:03:22;3.83;;;2.40;;
11960;SDS011;6040;49.358;11.140;2023-05-07T13:05:50;5.30;;;2.40;;
11960;SDS011;6040;49.358;11.140;2023-05-07T13:08:23;2.70;;;2.13;;
11960;SDS011;6040;49.358;11.140;2023-05-07T13:10:54;3.23;;;2.10;;
11960;SDS011;6040;49.358;11.140;2023-05-07T13:13:23;2.53;;;2.30;;
11960;SDS011;6040;49.358;11.140;2023-05-07T13:15:50;4.93;;;2.00;;
11960;SDS011;6040;49.358;11.140;2023-05-07T13:18:17;3.43;;;2.50;;
11960;SDS011;6040;49.358;11.140;2023-05-07T13:20:43;2.50;;;2.30;;
11960;SDS011;6040;49.358;11.140;2023-05-07T13:23:10;2.47;;;2.27;;
11960;SDS011;6040;49.358;11.140;2023-05-07T13:25:37;3.03;;;2.20;;
11960;SDS011;6040;49.358;11.140;2023-05-07T13:28:04;4.47;;;2.20;;
11960;SDS011;6040;49.358;11.140;2023-05-07T13:30:32;2.73;;;2.00;;
11960;SDS011;6040;49.358;11.140;2023-05-07T13:32:59;2.87;;;2.10;;
11960;SDS011;6040;49.358;11.140;2023-05-07T13:35:26;3.40;;;2.20;;
11960;SDS011;6040;49.358;11.140;2023-05-07T13:37:53;2.20;;;2.00;;
11960;SDS011;6040;49.358;11.140;2023-05-07T13:40:20;3.03;;;2.30;;
11960;SDS011;6040;49.358;11.140;2023-05-07T13:42:48;2.33;;;2.10;;
11960;SDS011;6040;49.358;11.140;2023-05-07T13:45:15;2.20;;;2.00;;
11960;SDS011;6040;49.358;11.140;2023-05-07T13:47:43;2.20;;;1.93;;
11960;SDS011;6040;49.358;11.140;2023-05-07T13:50:10;2.17;;;1.80;;
11960;SDS011;6040;49.358;11.140;2023-05-07T13:52:38;4.17;;;2.07;;
11960;SDS011;6040;49.358;11.140;2023-05-07T13:55:08;2.70;;;2.20;;
11960;SDS011;6040;49.358;11.140;2023-05-07T13:57:35;3.17;;;2.20;;
11960;SDS011;6040;49.358;11.140;2023-05-07T14:00:02;3.20;;;2.30;;
11960;SDS011;6040;49.358;11.140;2023-05-07T14:02:30;2.30;;;2.10;;
11960;SDS011;6040;49.358;11.140;2023-05-07T14:04:58;2.57;;;2.20;;
11960;SDS011;6040;49.358;11.140;2023-05-07T14:07:24;2.33;;;1.90;;
11960;SDS011;6040;49.358;11.140;2023-05-07T14:09:51;2.87;;;2.30;;
11960;SDS011;6040;49.358;11.140;2023-05-07T14:12:18;3.60;;;2.40;;
11960;SDS011;6040;49.358;11.140;2023-05-07T14:14:45;2.70;;;2.50;;
11960;SDS011;6040;49.358;11.140;2023-05-07T14:17:12;2.40;;;2.20;;
11960;SDS011;6040;49.358;11.140;2023-05-07T14:19:38;2.40;;;2.20;;
11960;SDS011;6040;49.358;11.140;2023-05-07T14:22:06;2.40;;;2.20;;
11960;SDS011;6040;49.358;11.140;2023-05-07T14:24:33;2.73;;;2.20;;
11960;SDS011;6040;49.358;11.140;2023-05-07T14:27:00;2.37;;;2.10;;
11960;SDS011;6040;49.358;11.140;2023-05-07T14:29:27;3.07;;;2.30;;
11960;SDS011;6040;49.358;11.140;2023-05-07T14:31:54;2.53;;;2.33;;
11960;SDS011;6040;49.358;11.140;2023-05-07T14:34:20;3.63;;;2.50;;
11960;SDS011;6040;49.358;11.140;2023-05-07T14:36:47;2.93;;;2.40;;
11960;SDS011;6040;49.358;11.140;2023-05-07T14:39:15;2.63;;;2.20;;
11960;SDS011;6040;49.358;11.140;2023-05-07T14:41:42;2.40;;;2.20;;
11960;SDS011;6040;49.358;11.140;2023-05-07T14:44:09;4.03;;;2.60;;
11960;SDS011;6040;49.358;11.140;2023-05-07T14:46:36;2.83;;;2.63;;
11960;SDS011;6040;49.358;11.140;2023-05-07T14:49:03;3.27;;;2.90;;
11960;SDS011;6040;49.358;11.140;2023-05-07T14:51:30;3.77;;;2.83;;
11960;SDS011;6040;49.358;11.140;2023-05-07T14:53:58;3.10;;;2.80;;
11960;SDS011;6040;49.358;11.140;2023-05-07T14:56:26;2.80;;;2.60;;
11960;SDS011;6040;49.358;11.140;2023-05-07T14:58:53;4.47;;;2.70;;
11960;SDS011;6040;49.358;11.140;2023-05-07T15:01:20;3.73;;;2.77;;